sensor_id;sensor_type;location;lat;lon;timestamp;P1;durP1;ratioP1;P2;durP2;ratioP2
44048;SDS011;29717;47.028;15.470;2023-04-03T00:00:36;1.93;;;1.83;;
44048;SDS011;29717;47.028;15.470;2023-04-03T00:03:03;2.60;;;1.90;;
44048;SDS011;29717;47.028;15.470;2023-04-03T00:05:30;1.80;;;1.70;;
44048;SDS011;29717;47.028;15.470;2023-04-03T00:07:57;1.93;;;1.83;;
44048;SDS011;29717;47.028;15.470;2023-04-03T00:10:25;2.10;;;1.80;;
44048;SDS011;29717;47.028;15.470;2023-04-03T00:12:52;1.87;;;1.77;;
44048;SDS011;29717;47.028;15.470;2023-04-03T00:15:18;1.83;;;1.70;;
44048;SDS011;29717;47.028;15.470;2023-04-03T00:17:45;1.80;;;1.70;;
44048;SDS011;29717;47.028;15.470;2023-04-03T00:20:12;2.10;;;1.70;;
44048;SDS011;29717;47.028;15.470;2023-04-03T00:22:39;1.90;;;1.80;;
44048;SDS011;29717;47.028;15.470;2023-04-03T00:25:07;1.83;;;1.63;;
44048;SDS011;29717;47.028;15.470;2023-04-03T00:27:37;2.40;;;1.90;;
44048;SDS011;29717;47.028;15.470;2023-04-03T00:30:05;2.07;;;1.90;;
44048;SDS011;29717;47.028;15.470;2023-04-03T00:32:32;1.70;;;1.60;;
44048;SDS011;29717;47.028;15.470;2023-04-03T00:34:59;2.47;;;2.00;;
44048;SDS011;29717;47.028;15.470;2023-04-03T00:37:26;1.93;;;1.83;;
44048;SDS011;29717;47.028;15.470;2023-04-03T00:39:52;2.30;;;2.10;;
44048;SDS011;29717;47.028;15.470;2023-04-03T00:42:19;2.30;;;2.10;;
44048;SDS011;29717;47.028;15.470;2023-04-03T00:47:33;2.00;;;1.90;;
44048;SDS011;29717;47.028;15.470;2023-04-03T00:50:00;2.20;;;2.00;;
44048;SDS011;29717;47.028;15.470;2023-04-03T00:52:28;2.10;;;1.87;;
44048;SDS011;29717;47.028;15.470;2023-04-03T00:54:57;2.10;;;1.90;;
44048;SDS011;29717;47.028;15.470;2023-04-03T00:57:26;2.30;;;2.00;;
44048;SDS011;29717;47.028;15.470;2023-04-03T00:59:54;2.10;;;2.00;;
44048;SDS011;29717;47.028;15.470;2023-04-03T01:02:21;2.43;;;2.10;;
44048;SDS011;29717;47.028;15.470;2023-04-03T01:04:50;2.10;;;1.90;;
44048;SDS011;29717;47.028;15.470;2023-04-03T01:07:17;3.07;;;2.20;;
44048;SDS011;29717;47.028;15.470;2023-04-03T01:09:45;3.20;;;2.07;;
44048;SDS011;29717;47.028;15.470;2023-04-03T01:12:14;2.70;;;2.43;;
44048;SDS011;29717;47.028;15.470;2023-04-03T01:14:42;2.60;;;2.40;;
44048;SDS011;29717;47.028;15.470;2023-04-03T01:17:23;2.53;;;2.20;;
44048;SDS011;29717;47.028;15.470;2023-04-03T01:19:55;2.30;;;2.10;;
44048;SDS011;29717;47.028;15.470;2023-04-03T01:22:28;2.03;;;1.87;;
44048;SDS011;29717;47.028;15.470;2023-04-03T01:24:56;2.57;;;2.03;;
44048;SDS011;29717;47.028;15.470;2023-04-03T01:27:23;2.87;;;2.63;;
44048;SDS011;29717;47.028;15.470;2023-04-03T01:29:49;2.70;;;2.50;;
44048;SDS011;29717;47.028;15.470;2023-04-03T01:32:18;2.60;;;2.40;;
44048;SDS011;29717;47.028;15.470;2023-04-03T01:34:45;2.27;;;1.90;;
44048;SDS011;29717;47.028;15.470;2023-04-03T01:37:11;2.50;;;2.30;;
44048;SDS011;29717;47.028;15.470;2023-04-03T01:39:38;2.23;;;2.03;;
44048;SDS011;29717;47.028;15.470;2023-04-03T01:42:05;2.30;;;2.03;;
44048;SDS011;29717;47.028;15.470;2023-04-03T01:44:32;2.10;;;2.00;;
44048;SDS011;29717;47.028;15.470;2023-04-03T01:46:59;2.23;;;2.03;;
44048;SDS011;29717;47.028;15.470;2023-04-03T01:49:27;2.57;;;2.20;;
44048;SDS011;29717;47.028;15.470;2023-04-03T01:51:54;2.70;;;2.50;;
44048;SDS011;29717;47.028;15.470;2023-04-03T01:54:20;2.60;;;2.37;;
44048;SDS011;29717;47.028;15.470;2023-04-03T01:56:48;3.13;;;2.20;;
44048;SDS011;29717;47.028;15.470;2023-04-03T01:59:14;2.27;;;2.07;;
44048;SDS011;29717;47.028;15.470;2023-04-03T02:01:42;2.13;;;1.93;;
44048;SDS011;29717;47.028;15.470;2023-04-03T02:04:10;2.30;;;2.10;;
44048;SDS011;29717;47.028;15.470;2023-04-03T02:06:38;2.20;;;1.90;;
44048;SDS011;29717;47.028;15.470;2023-04-03T02:09:05;2.20;;;1.73;;
44048;SDS011;29717;47.028;15.470;2023-04-03T02:11:32;2.20;;;2.00;;
44048;SDS011;29717;47.028;15.470;2023-04-03T02:13:59;1.90;;;1.70;;
44048;SDS011;29717;47.028;15.470;2023-04-03T02:16:26;2.30;;;1.97;;
44048;SDS011;29717;47.028;15.470;2023-04-03T02:18:54;2.07;;;1.90;;
44048;SDS011;29717;47.028;15.470;2023-04-03T02:21:20;1.97;;;1.80;;
44048;SDS011;29717;47.028;15.470;2023-04-03T02:23:48;2.27;;;1.97;;
44048;SDS011;29717;47.028;15.470;2023-04-03T02:26:16;4.03;;;2.00;;
44048;SDS011;29717;47.028;15.470;2023-04-03T02:28:42;3.20;;;2.03;;
44048;SDS011;29717;47.028;15.470;2023-04-03T02:31:09;2.13;;;1.67;;
44048;SDS011;29717;47.028;15.470;2023-04-03T02:33:36;2.30;;;2.10;;
44048;SDS011;29717;47.028;15.470;2023-04-03T02:36:03;2.33;;;2.03;;
44048;SDS011;29717;47.028;15.470;2023-04-03T02:38:31;1.87;;;1.77;;
44048;SDS011;29717;47.028;15.470;2023-04-03T02:41:01;3.57;;;1.90;;
44048;SDS011;29717;47.028;15.470;2023-04-03T02:43:28;3.57;;;1.80;;
44048;SDS011;29717;47.028;15.470;2023-04-03T02:45:55;3.80;;;2.00;;
44048;SDS011;29717;47.028;15.470;2023-04-03T02:48:21;2.33;;;1.70;;
44048;SDS011;29717;47.028;15.470;2023-04-03T02:50:49;2.90;;;1.60;;
44048;SDS011;29717;47.028;15.470;2023-04-03T02:53:16;1.77;;;1.60;;
44048;SDS011;29717;47.028;15.470;2023-04-03T02:55:43;1.83;;;1.73;;
44048;SDS011;29717;47.028;15.470;2023-04-03T02:58:11;2.00;;;1.80;;
44048;SDS011;29717;47.028;15.470;2023-04-03T03:00:38;1.70;;;1.60;;
44048;SDS011;29717;47.028;15.470;2023-04-03T03:03:05;1.80;;;1.70;;
44048;SDS011;29717;47.028;15.470;2023-04-03T03:05:32;2.20;;;1.90;;
44048;SDS011;29717;47.028;15.470;2023-04-03T03:07:58;4.20;;;2.00;;
44048;SDS011;29717;47.028;15.470;2023-04-03T03:10:25;1.93;;;1.63;;
44048;SDS011;29717;47.028;15.470;2023-04-03T03:12:52;2.37;;;1.50;;
44048;SDS011;29717;47.028;15.470;2023-04-03T03:15:20;2.10;;;1.77;;
44048;SDS011;29717;47.028;15.470;2023-04-03T03:17:47;2.43;;;1.70;;
44048;SDS011;29717;47.028;15.470;2023-04-03T03:20:13;1.77;;;1.63;;
44048;SDS011;29717;47.028;15.470;2023-04-03T03:22:42;2.10;;;1.60;;
44048;SDS011;29717;47.028;15.470;2023-04-03T03:25:08;2.83;;;1.63;;
44048;SDS011;29717;47.028;15.470;2023-04-03T03:27:35;1.77;;;1.60;;
44048;SDS011;29717;47.028;15.470;2023-04-03T03:30:02;1.60;;;1.50;;
44048;SDS011;29717;47.028;15.470;2023-04-03T03:32:31;1.60;;;1.50;;
44048;SDS011;29717;47.028;15.470;2023-04-03T03:34:58;2.97;;;1.73;;
44048;SDS011;29717;47.028;15.470;2023-04-03T03:37:25;1.63;;;1.53;;
44048;SDS011;29717;47.028;15.470;2023-04-03T03:39:52;1.80;;;1.70;;
44048;SDS011;29717;47.028;15.470;2023-04-03T03:42:18;2.10;;;1.73;;
44048;SDS011;29717;47.028;15.470;2023-04-03T03:44:45;1.87;;;1.77;;
44048;SDS011;29717;47.028;15.470;2023-04-03T03:47:12;3.30;;;1.83;;
44048;SDS011;29717;47.028;15.470;2023-04-03T03:49:40;5.33;;;1.77;;
44048;SDS011;29717;47.028;15.470;2023-04-03T03:52:07;2.07;;;1.87;;
44048;SDS011;29717;47.028;15.470;2023-04-03T03:54:35;3.23;;;1.93;;
44048;SDS011;29717;47.028;15.470;2023-04-03T03:57:02;2.30;;;1.70;;
44048;SDS011;29717;47.028;15.470;2023-04-03T03:59:29;2.10;;;1.90;;
44048;SDS011;29717;47.028;15.470;2023-04-03T04:01:56;2.10;;;1.73;;
44048;SDS011;29717;47.028;15.470;2023-04-03T04:04:22;2.90;;;1.90;;
44048;SDS011;29717;47.028;15.470;2023-04-03T04:06:51;4.17;;;2.30;;
44048;SDS011;29717;47.028;15.470;2023-04-03T04:09:17;2.57;;;1.73;;
44048;SDS011;29717;47.028;15.470;2023-04-03T04:11:45;1.90;;;1.80;;
44048;SDS011;29717;47.028;15.470;2023-04-03T04:14:11;1.80;;;1.63;;
44048;SDS011;29717;47.028;15.470;2023-04-03T04:16:38;4.40;;;1.80;;
44048;SDS011;29717;47.028;15.470;2023-04-03T04:19:05;3.63;;;1.83;;
44048;SDS011;29717;47.028;15.470;2023-04-03T04:21:32;4.73;;;1.60;;
44048;SDS011;29717;47.028;15.470;2023-04-03T04:24:00;2.27;;;1.87;;
44048;SDS011;29717;47.028;15.470;2023-04-03T04:26:27;2.07;;;1.90;;
44048;SDS011;29717;47.028;15.470;2023-04-03T04:28:53;2.43;;;1.80;;
44048;SDS011;29717;47.028;15.470;2023-04-03T04:31:20;2.30;;;1.73;;
44048;SDS011;29717;47.028;15.470;2023-04-03T04:33:47;2.40;;;1.70;;
44048;SDS011;29717;47.028;15.470;2023-04-03T04:36:14;2.40;;;2.00;;
44048;SDS011;29717;47.028;15.470;2023-04-03T04:38:41;2.33;;;1.70;;
44048;SDS011;29717;47.028;15.470;2023-04-03T04:41:09;5.27;;;2.20;;
44048;SDS011;29717;47.028;15.470;2023-04-03T04:43:36;6.20;;;2.20;;
44048;SDS011;29717;47.028;15.470;2023-04-03T04:46:03;7.13;;;3.00;;
44048;SDS011;29717;47.028;15.470;2023-04-03T04:48:30;9.00;;;4.50;;
44048;SDS011;29717;47.028;15.470;2023-04-03T04:50:57;9.87;;;5.63;;
44048;SDS011;29717;47.028;15.470;2023-04-03T04:53:25;8.43;;;5.07;;
44048;SDS011;29717;47.028;15.470;2023-04-03T04:55:52;7.20;;;4.40;;
44048;SDS011;29717;47.028;15.470;2023-04-03T04:58:20;4.57;;;2.40;;
44048;SDS011;29717;47.028;15.470;2023-04-03T05:00:47;4.43;;;2.10;;
44048;SDS011;29717;47.028;15.470;2023-04-03T05:03:14;3.77;;;1.90;;
44048;SDS011;29717;47.028;15.470;2023-04-03T05:05:40;3.50;;;1.97;;
44048;SDS011;29717;47.028;15.470;2023-04-03T05:08:07;3.03;;;1.70;;
44048;SDS011;29717;47.028;15.470;2023-04-03T05:10:34;2.27;;;1.83;;
44048;SDS011;29717;47.028;15.470;2023-04-03T05:13:01;4.07;;;1.80;;
44048;SDS011;29717;47.028;15.470;2023-04-03T05:15:29;2.40;;;1.80;;
44048;SDS011;29717;47.028;15.470;2023-04-03T05:17:56;3.20;;;1.70;;
44048;SDS011;29717;47.028;15.470;2023-04-03T05:20:23;4.73;;;1.87;;
44048;SDS011;29717;47.028;15.470;2023-04-03T05:22:50;3.90;;;1.73;;
44048;SDS011;29717;47.028;15.470;2023-04-03T05:25:17;3.00;;;1.90;;
44048;SDS011;29717;47.028;15.470;2023-04-03T05:27:45;2.60;;;1.73;;
44048;SDS011;29717;47.028;15.470;2023-04-03T05:30:12;4.07;;;1.60;;
44048;SDS011;29717;47.028;15.470;2023-04-03T05:32:41;1.63;;;1.47;;
44048;SDS011;29717;47.028;15.470;2023-04-03T05:35:08;2.70;;;1.50;;
44048;SDS011;29717;47.028;15.470;2023-04-03T05:37:35;3.20;;;1.70;;
44048;SDS011;29717;47.028;15.470;2023-04-03T05:40:03;2.10;;;1.43;;
44048;SDS011;29717;47.028;15.470;2023-04-03T05:42:30;4.83;;;1.80;;
44048;SDS011;29717;47.028;15.470;2023-04-03T05:44:56;1.83;;;1.63;;
44048;SDS011;29717;47.028;15.470;2023-04-03T05:47:23;2.40;;;1.60;;
44048;SDS011;29717;47.028;15.470;2023-04-03T05:49:52;2.53;;;1.47;;
44048;SDS011;29717;47.028;15.470;2023-04-03T05:52:20;2.90;;;1.60;;
44048;SDS011;29717;47.028;15.470;2023-04-03T05:54:47;1.70;;;1.40;;
44048;SDS011;29717;47.028;15.470;2023-04-03T05:57:14;2.27;;;1.27;;
44048;SDS011;29717;47.028;15.470;2023-04-03T05:59:41;6.70;;;1.50;;
44048;SDS011;29717;47.028;15.470;2023-04-03T06:02:09;2.10;;;1.50;;
44048;SDS011;29717;47.028;15.470;2023-04-03T06:04:36;2.30;;;1.30;;
44048;SDS011;29717;47.028;15.470;2023-04-03T06:07:05;3.17;;;1.10;;
44048;SDS011;29717;47.028;15.470;2023-04-03T06:09:33;4.10;;;1.70;;
44048;SDS011;29717;47.028;15.470;2023-04-03T06:12:00;1.83;;;1.70;;
44048;SDS011;29717;47.028;15.470;2023-04-03T06:14:27;2.37;;;1.43;;
44048;SDS011;29717;47.028;15.470;2023-04-03T06:16:54;1.20;;;1.10;;
44048;SDS011;29717;47.028;15.470;2023-04-03T06:19:21;1.83;;;1.47;;
44048;SDS011;29717;47.028;15.470;2023-04-03T06:21:48;1.40;;;1.10;;
44048;SDS011;29717;47.028;15.470;2023-04-03T06:24:17;3.33;;;1.50;;
44048;SDS011;29717;47.028;15.470;2023-04-03T06:26:45;1.33;;;1.23;;
44048;SDS011;29717;47.028;15.470;2023-04-03T06:29:12;2.10;;;1.43;;
44048;SDS011;29717;47.028;15.470;2023-04-03T06:31:39;1.60;;;1.33;;
44048;SDS011;29717;47.028;15.470;2023-04-03T06:34:06;1.60;;;1.20;;
44048;SDS011;29717;47.028;15.470;2023-04-03T06:36:34;0.90;;;0.90;;
44048;SDS011;29717;47.028;15.470;2023-04-03T06:39:00;1.53;;;1.20;;
44048;SDS011;29717;47.028;15.470;2023-04-03T06:41:29;2.70;;;1.20;;
44048;SDS011;29717;47.028;15.470;2023-04-03T06:43:56;1.40;;;1.30;;
44048;SDS011;29717;47.028;15.470;2023-04-03T06:46:24;3.13;;;1.43;;
44048;SDS011;29717;47.028;15.470;2023-04-03T06:51:21;1.37;;;1.17;;
44048;SDS011;29717;47.028;15.470;2023-04-03T06:53:49;1.30;;;1.10;;
44048;SDS011;29717;47.028;15.470;2023-04-03T06:56:16;2.23;;;1.20;;
44048;SDS011;29717;47.028;15.470;2023-04-03T06:58:45;1.30;;;1.10;;
44048;SDS011;29717;47.028;15.470;2023-04-03T07:01:14;3.57;;;1.23;;
44048;SDS011;29717;47.028;15.470;2023-04-03T07:03:41;1.60;;;1.10;;
44048;SDS011;29717;47.028;15.470;2023-04-03T07:06:09;1.30;;;1.20;;
44048;SDS011;29717;47.028;15.470;2023-04-03T07:08:37;2.03;;;1.10;;
44048;SDS011;29717;47.028;15.470;2023-04-03T07:11:04;1.20;;;1.10;;
44048;SDS011;29717;47.028;15.470;2023-04-03T07:13:31;3.25;;;1.13;;
44048;SDS011;29717;47.028;15.470;2023-04-03T07:15:59;1.10;;;1.00;;
44048;SDS011;29717;47.028;15.470;2023-04-03T07:18:26;1.63;;;1.00;;
44048;SDS011;29717;47.028;15.470;2023-04-03T07:20:53;1.85;;;1.10;;
44048;SDS011;29717;47.028;15.470;2023-04-03T07:23:21;2.45;;;1.30;;
44048;SDS011;29717;47.028;15.470;2023-04-03T07:25:48;1.25;;;1.05;;
44048;SDS011;29717;47.028;15.470;2023-04-03T07:28:16;1.27;;;1.17;;
44048;SDS011;29717;47.028;15.470;2023-04-03T07:30:44;1.55;;;1.10;;
44048;SDS011;29717;47.028;15.470;2023-04-03T07:33:12;1.42;;;1.20;;
44048;SDS011;29717;47.028;15.470;2023-04-03T07:35:40;1.80;;;1.08;;
44048;SDS011;29717;47.028;15.470;2023-04-03T07:38:07;1.20;;;1.10;;
44048;SDS011;29717;47.028;15.470;2023-04-03T07:40:34;2.80;;;1.20;;
44048;SDS011;29717;47.028;15.470;2023-04-03T07:43:01;2.03;;;1.20;;
44048;SDS011;29717;47.028;15.470;2023-04-03T07:45:28;2.42;;;1.20;;
44048;SDS011;29717;47.028;15.470;2023-04-03T07:47:55;1.48;;;1.25;;
44048;SDS011;29717;47.028;15.470;2023-04-03T07:50:23;1.52;;;1.30;;
44048;SDS011;29717;47.028;15.470;2023-04-03T07:52:50;5.07;;;1.30;;
44048;SDS011;29717;47.028;15.470;2023-04-03T07:55:19;1.15;;;1.05;;
44048;SDS011;29717;47.028;15.470;2023-04-03T07:57:46;2.45;;;1.20;;
44048;SDS011;29717;47.028;15.470;2023-04-03T08:00:13;2.38;;;1.30;;
44048;SDS011;29717;47.028;15.470;2023-04-03T08:02:42;1.17;;;1.08;;
44048;SDS011;29717;47.028;15.470;2023-04-03T08:05:09;1.85;;;1.10;;
44048;SDS011;29717;47.028;15.470;2023-04-03T08:07:38;2.05;;;1.30;;
44048;SDS011;29717;47.028;15.470;2023-04-03T08:10:05;1.42;;;1.10;;
44048;SDS011;29717;47.028;15.470;2023-04-03T08:12:32;1.30;;;1.20;;
44048;SDS011;29717;47.028;15.470;2023-04-03T08:14:59;3.85;;;1.10;;
44048;SDS011;29717;47.028;15.470;2023-04-03T08:17:25;2.47;;;1.10;;
44048;SDS011;29717;47.028;15.470;2023-04-03T08:19:52;1.50;;;1.08;;
44048;SDS011;29717;47.028;15.470;2023-04-03T08:22:19;1.48;;;1.08;;
44048;SDS011;29717;47.028;15.470;2023-04-03T08:24:48;4.05;;;1.00;;
44048;SDS011;29717;47.028;15.470;2023-04-03T08:27:14;1.20;;;1.10;;
44048;SDS011;29717;47.028;15.470;2023-04-03T08:29:41;1.92;;;0.90;;
44048;SDS011;29717;47.028;15.470;2023-04-03T08:32:08;0.90;;;0.90;;
44048;SDS011;29717;47.028;15.470;2023-04-03T08:34:35;1.00;;;0.90;;
44048;SDS011;29717;47.028;15.470;2023-04-03T08:37:04;0.95;;;0.70;;
44048;SDS011;29717;47.028;15.470;2023-04-03T08:39:31;0.82;;;0.82;;
44048;SDS011;29717;47.028;15.470;2023-04-03T08:42:00;4.95;;;1.10;;
44048;SDS011;29717;47.028;15.470;2023-04-03T08:44:31;2.95;;;1.10;;
44048;SDS011;29717;47.028;15.470;2023-04-03T08:47:09;1.00;;;0.90;;
44048;SDS011;29717;47.028;15.470;2023-04-03T08:49:39;2.50;;;1.27;;
44048;SDS011;29717;47.028;15.470;2023-04-03T08:52:12;1.73;;;1.30;;
44048;SDS011;29717;47.028;15.470;2023-04-03T08:54:42;2.22;;;1.38;;
44048;SDS011;29717;47.028;15.470;2023-04-03T08:57:15;1.20;;;1.10;;
44048;SDS011;29717;47.028;15.470;2023-04-03T08:59:42;2.17;;;1.00;;
44048;SDS011;29717;47.028;15.470;2023-04-03T09:02:16;3.03;;;1.40;;
44048;SDS011;29717;47.028;15.470;2023-04-03T09:04:44;1.42;;;1.10;;
44048;SDS011;29717;47.028;15.470;2023-04-03T09:07:13;1.25;;;1.00;;
44048;SDS011;29717;47.028;15.470;2023-04-03T09:09:41;1.20;;;1.00;;
44048;SDS011;29717;47.028;15.470;2023-04-03T09:12:12;1.50;;;1.02;;
44048;SDS011;29717;47.028;15.470;2023-04-03T09:14:44;0.93;;;0.88;;
44048;SDS011;29717;47.028;15.470;2023-04-03T09:17:14;2.83;;;1.08;;
44048;SDS011;29717;47.028;15.470;2023-04-03T09:19:45;1.42;;;1.10;;
44048;SDS011;29717;47.028;15.470;2023-04-03T09:22:17;2.05;;;1.02;;
44048;SDS011;29717;47.028;15.470;2023-04-03T09:24:45;3.38;;;1.20;;
44048;SDS011;29717;47.028;15.470;2023-04-03T09:27:12;1.17;;;1.08;;
44048;SDS011;29717;47.028;15.470;2023-04-03T09:29:40;2.15;;;1.35;;
44048;SDS011;29717;47.028;15.470;2023-04-03T09:32:18;1.40;;;1.00;;
44048;SDS011;29717;47.028;15.470;2023-04-03T09:34:45;0.98;;;0.88;;
44048;SDS011;29717;47.028;15.470;2023-04-03T09:37:12;1.02;;;0.90;;
44048;SDS011;29717;47.028;15.470;2023-04-03T09:39:58;1.20;;;1.10;;
44048;SDS011;29717;47.028;15.470;2023-04-03T09:42:25;1.15;;;0.95;;
44048;SDS011;29717;47.028;15.470;2023-04-03T09:44:53;2.17;;;1.30;;
44048;SDS011;29717;47.028;15.470;2023-04-03T09:47:25;1.08;;;0.90;;
44048;SDS011;29717;47.028;15.470;2023-04-03T09:49:52;1.83;;;1.15;;
44048;SDS011;29717;47.028;15.470;2023-04-03T09:52:35;1.00;;;0.90;;
44048;SDS011;29717;47.028;15.470;2023-04-03T09:55:06;1.10;;;1.00;;
44048;SDS011;29717;47.028;15.470;2023-04-03T09:57:35;1.20;;;1.02;;
44048;SDS011;29717;47.028;15.470;2023-04-03T10:00:03;1.25;;;1.05;;
44048;SDS011;29717;47.028;15.470;2023-04-03T10:02:34;1.20;;;1.02;;
44048;SDS011;29717;47.028;15.470;2023-04-03T10:05:01;1.60;;;1.17;;
44048;SDS011;29717;47.028;15.470;2023-04-03T10:07:30;1.40;;;1.20;;
44048;SDS011;29717;47.028;15.470;2023-04-03T10:09:58;1.10;;;1.00;;
44048;SDS011;29717;47.028;15.470;2023-04-03T10:12:26;2.08;;;1.13;;
44048;SDS011;29717;47.028;15.470;2023-04-03T10:14:56;0.85;;;0.85;;
44048;SDS011;29717;47.028;15.470;2023-04-03T10:17:25;1.02;;;0.90;;
44048;SDS011;29717;47.028;15.470;2023-04-03T10:19:59;1.30;;;1.00;;
44048;SDS011;29717;47.028;15.470;2023-04-03T10:22:30;3.92;;;0.90;;
44048;SDS011;29717;47.028;15.470;2023-04-03T10:25:02;1.05;;;0.90;;
44048;SDS011;29717;47.028;15.470;2023-04-03T10:27:42;6.60;;;1.00;;
44048;SDS011;29717;47.028;15.470;2023-04-03T10:30:18;1.10;;;0.95;;
44048;SDS011;29717;47.028;15.470;2023-04-03T10:32:54;4.65;;;0.93;;
44048;SDS011;29717;47.028;15.470;2023-04-03T10:35:28;0.80;;;0.80;;
44048;SDS011;29717;47.028;15.470;2023-04-03T10:38:01;1.05;;;0.90;;
44048;SDS011;29717;47.028;15.470;2023-04-03T10:40:31;1.58;;;1.20;;
44048;SDS011;29717;47.028;15.470;2023-04-03T10:43:02;3.50;;;0.80;;
44048;SDS011;29717;47.028;15.470;2023-04-03T10:45:31;2.58;;;1.00;;
44048;SDS011;29717;47.028;15.470;2023-04-03T10:48:06;2.25;;;1.00;;
44048;SDS011;29717;47.028;15.470;2023-04-03T10:50:39;1.98;;;0.95;;
44048;SDS011;29717;47.028;15.470;2023-04-03T10:53:14;1.33;;;0.90;;
44048;SDS011;29717;47.028;15.470;2023-04-03T10:55:46;1.05;;;0.95;;
44048;SDS011;29717;47.028;15.470;2023-04-03T10:58:18;1.85;;;1.02;;
44048;SDS011;29717;47.028;15.470;2023-04-03T11:00:47;2.25;;;1.00;;
44048;SDS011;29717;47.028;15.470;2023-04-03T11:03:16;1.08;;;0.98;;
44048;SDS011;29717;47.028;15.470;2023-04-03T11:05:45;0.95;;;0.93;;
44048;SDS011;29717;47.028;15.470;2023-04-03T11:08:17;1.50;;;1.30;;
44048;SDS011;29717;47.028;15.470;2023-04-03T11:10:48;1.13;;;0.93;;
44048;SDS011;29717;47.028;15.470;2023-04-03T11:13:17;1.58;;;1.10;;
44048;SDS011;29717;47.028;15.470;2023-04-03T11:15:45;2.78;;;1.10;;
44048;SDS011;29717;47.028;15.470;2023-04-03T11:18:13;1.20;;;1.10;;
44048;SDS011;29717;47.028;15.470;2023-04-03T11:20:42;1.63;;;1.17;;
44048;SDS011;29717;47.028;15.470;2023-04-03T11:23:15;0.93;;;0.93;;
44048;SDS011;29717;47.028;15.470;2023-04-03T11:25:45;1.00;;;0.90;;
44048;SDS011;29717;47.028;15.470;2023-04-03T11:28:14;0.98;;;0.85;;
44048;SDS011;29717;47.028;15.470;2023-04-03T11:30:42;2.38;;;1.20;;
44048;SDS011;29717;47.028;15.470;2023-04-03T11:35:52;1.10;;;1.00;;
44048;SDS011;29717;47.028;15.470;2023-04-03T11:38:22;4.88;;;0.98;;
44048;SDS011;29717;47.028;15.470;2023-04-03T11:40:51;0.98;;;0.80;;
44048;SDS011;29717;47.028;15.470;2023-04-03T11:43:22;1.90;;;1.00;;
44048;SDS011;29717;47.028;15.470;2023-04-03T11:45:52;3.40;;;1.10;;
44048;SDS011;29717;47.028;15.470;2023-04-03T11:53:48;1.17;;;1.00;;
44048;SDS011;29717;47.028;15.470;2023-04-03T11:56:28;2.50;;;1.02;;
44048;SDS011;29717;47.028;15.470;2023-04-03T11:59:16;1.25;;;0.98;;
44048;SDS011;29717;47.028;15.470;2023-04-03T12:01:44;1.00;;;0.90;;
44048;SDS011;29717;47.028;15.470;2023-04-03T12:04:12;1.00;;;0.80;;
44048;SDS011;29717;47.028;15.470;2023-04-03T12:06:47;1.83;;;1.00;;
44048;SDS011;29717;47.028;15.470;2023-04-03T12:11:59;0.98;;;0.98;;
44048;SDS011;29717;47.028;15.470;2023-04-03T12:14:26;1.50;;;1.10;;
44048;SDS011;29717;47.028;15.470;2023-04-03T12:16:54;1.30;;;1.13;;
44048;SDS011;29717;47.028;15.470;2023-04-03T12:19:36;1.52;;;1.23;;
44048;SDS011;29717;47.028;15.470;2023-04-03T12:22:15;1.42;;;1.30;;
44048;SDS011;29717;47.028;15.470;2023-04-03T12:24:44;1.30;;;1.20;;
44048;SDS011;29717;47.028;15.470;2023-04-03T12:27:20;1.73;;;1.10;;
44048;SDS011;29717;47.028;15.470;2023-04-03T12:29:50;1.15;;;1.05;;
44048;SDS011;29717;47.028;15.470;2023-04-03T12:32:22;1.63;;;1.10;;
44048;SDS011;29717;47.028;15.470;2023-04-03T12:35:03;1.85;;;1.10;;
44048;SDS011;29717;47.028;15.470;2023-04-03T12:37:40;1.10;;;1.00;;
44048;SDS011;29717;47.028;15.470;2023-04-03T12:40:10;1.73;;;1.15;;
44048;SDS011;29717;47.028;15.470;2023-04-03T12:42:57;1.55;;;1.20;;
44048;SDS011;29717;47.028;15.470;2023-04-03T12:45:29;1.88;;;1.13;;
44048;SDS011;29717;47.028;15.470;2023-04-03T12:48:05;1.85;;;1.05;;
44048;SDS011;29717;47.028;15.470;2023-04-03T12:50:38;2.55;;;1.27;;
44048;SDS011;29717;47.028;15.470;2023-04-03T12:53:11;1.30;;;1.10;;
44048;SDS011;29717;47.028;15.470;2023-04-03T12:55:38;1.20;;;1.10;;
44048;SDS011;29717;47.028;15.470;2023-04-03T12:58:22;2.38;;;1.30;;
44048;SDS011;29717;47.028;15.470;2023-04-03T13:00:58;2.20;;;1.23;;
44048;SDS011;29717;47.028;15.470;2023-04-03T13:03:25;2.25;;;1.30;;
44048;SDS011;29717;47.028;15.470;2023-04-03T13:05:54;1.20;;;1.05;;
44048;SDS011;29717;47.028;15.470;2023-04-03T13:08:22;1.35;;;1.05;;
44048;SDS011;29717;47.028;15.470;2023-04-03T13:10:53;1.48;;;1.08;;
44048;SDS011;29717;47.028;15.470;2023-04-03T13:13:22;2.38;;;1.33;;
44048;SDS011;29717;47.028;15.470;2023-04-03T13:15:49;1.40;;;1.30;;
44048;SDS011;29717;47.028;15.470;2023-04-03T13:18:29;1.35;;;1.25;;
44048;SDS011;29717;47.028;15.470;2023-04-03T13:20:57;1.85;;;1.23;;
44048;SDS011;29717;47.028;15.470;2023-04-03T13:23:26;1.35;;;1.25;;
44048;SDS011;29717;47.028;15.470;2023-04-03T13:25:56;1.80;;;1.30;;
44048;SDS011;29717;47.028;15.470;2023-04-03T13:28:29;1.73;;;1.27;;
44048;SDS011;29717;47.028;15.470;2023-04-03T13:30:59;3.33;;;1.50;;
44048;SDS011;29717;47.028;15.470;2023-04-03T13:33:28;1.20;;;1.10;;
44048;SDS011;29717;47.028;15.470;2023-04-03T13:35:57;1.00;;;0.88;;
44048;SDS011;29717;47.028;15.470;2023-04-03T13:38:26;1.65;;;1.20;;
44048;SDS011;29717;47.028;15.470;2023-04-03T13:40:57;1.73;;;1.27;;
44048;SDS011;29717;47.028;15.470;2023-04-03T13:43:26;1.10;;;1.00;;
44048;SDS011;29717;47.028;15.470;2023-04-03T13:46:01;1.30;;;1.08;;
44048;SDS011;29717;47.028;15.470;2023-04-03T13:48:34;1.65;;;1.08;;
44048;SDS011;29717;47.028;15.470;2023-04-03T13:51:02;0.90;;;0.90;;
44048;SDS011;29717;47.028;15.470;2023-04-03T13:53:30;1.73;;;1.30;;
44048;SDS011;29717;47.028;15.470;2023-04-03T13:55:59;1.95;;;1.00;;
44048;SDS011;29717;47.028;15.470;2023-04-03T13:58:27;1.35;;;1.10;;
44048;SDS011;29717;47.028;15.470;2023-04-03T14:00:54;4.22;;;1.10;;
44048;SDS011;29717;47.028;15.470;2023-04-03T14:03:29;1.73;;;1.30;;
44048;SDS011;29717;47.028;15.470;2023-04-03T14:05:56;1.77;;;1.27;;
44048;SDS011;29717;47.028;15.470;2023-04-03T14:08:23;1.85;;;1.08;;
44048;SDS011;29717;47.028;15.470;2023-04-03T14:10:52;8.57;;;1.33;;
44048;SDS011;29717;47.028;15.470;2023-04-03T14:13:20;1.48;;;1.20;;
44048;SDS011;29717;47.028;15.470;2023-04-03T14:15:47;1.60;;;1.30;;
44048;SDS011;29717;47.028;15.470;2023-04-03T14:18:18;1.50;;;1.20;;
44048;SDS011;29717;47.028;15.470;2023-04-03T14:20:47;1.20;;;1.10;;
44048;SDS011;29717;47.028;15.470;2023-04-03T14:23:20;1.45;;;1.25;;
44048;SDS011;29717;47.028;15.470;2023-04-03T14:25:47;3.03;;;1.48;;
44048;SDS011;29717;47.028;15.470;2023-04-03T14:28:16;2.35;;;1.42;;
44048;SDS011;29717;47.028;15.470;2023-04-03T14:30:43;3.65;;;1.52;;
44048;SDS011;29717;47.028;15.470;2023-04-03T14:33:13;1.48;;;1.10;;
44048;SDS011;29717;47.028;15.470;2023-04-03T14:35:40;1.75;;;1.38;;
44048;SDS011;29717;47.028;15.470;2023-04-03T14:38:13;1.60;;;1.30;;
44048;SDS011;29717;47.028;15.470;2023-04-03T14:40:47;2.13;;;1.42;;
44048;SDS011;29717;47.028;15.470;2023-04-03T14:43:14;1.25;;;1.15;;
44048;SDS011;29717;47.028;15.470;2023-04-03T14:45:41;1.30;;;1.20;;
44048;SDS011;29717;47.028;15.470;2023-04-03T14:48:10;2.80;;;1.42;;
44048;SDS011;29717;47.028;15.470;2023-04-03T14:50:39;6.55;;;1.70;;
44048;SDS011;29717;47.028;15.470;2023-04-03T14:53:05;1.60;;;1.50;;
44048;SDS011;29717;47.028;15.470;2023-04-03T14:55:34;1.83;;;1.40;;
44048;SDS011;29717;47.028;15.470;2023-04-03T14:58:01;2.15;;;1.70;;